EST,Max TemperatureF,Mean TemperatureF,Min TemperatureF,Max Dew PointF,MeanDew PointF,Min DewpointF,Max Humidity, Mean Humidity, Min Humidity, Max Sea Level PressureIn, Mean Sea Level PressureIn, Min Sea Level PressureIn, Max VisibilityMiles, Mean VisibilityMiles, Min VisibilityMiles, Max Wind SpeedMPH, Mean Wind SpeedMPH, Max Gust SpeedMPH,PrecipitationIn, CloudCover, Events, WindDirDegrees
2012-11-1,55,45,34,29,22,14,70,46,22,29.90,29.85,29.80,10,10,10,25,9,32,0.00,0,,347
2012-11-2,67,49,31,39,31,23,78,56,34,30.00,29.91,29.83,10,10,10,25,6,33,0.00,2,,342
2012-11-3,71,53,34,41,33,24,89,56,22,30.11,30.04,29.99,10,10,10,15,4,18,0.00,0,,351
2012-11-4,64,54,44,51,43,38,92,74,56,30.01,29.97,29.93,10,10,10,17,8,23,0.00,2,,343
2012-11-5,57,46,35,36,32,27,85,59,33,30.08,30.03,29.97,10,10,10,14,6,18,0.00,1,,344
2012-11-6,45,41,37,36,35,31,92,75,58,30.09,30.02,29.92,10,9,2,8,2,12,0.16,8,Rain,174
2012-11-7,46,42,38,41,37,34,100,88,76,30.02,29.90,29.85,10,8,4,18,6,22,0.18,7,Rain,346
2012-11-8,54,44,33,36,31,22,89,60,30,30.19,30.12,30.02,10,10,10,21,9,28,0.00,1,,348
2012-11-9,65,47,29,34,30,27,92,58,24,30.30,30.25,30.20,10,10,10,14,6,20,0.00,0,,340
2012-11-10,71,51,30,35,31,21,92,54,16,30.39,30.33,30.27,10,10,10,12,2,15,0.00,0,,180
2012-11-11,66,49,32,51,41,30,96,70,44,30.47,30.40,30.34,10,10,7,20,6,25,T,4,Rain,167
2012-11-12,63,53,43,57,54,44,93,83,72,30.38,30.26,30.16,10,9,4,25,12,32,0.37,8,Rain,165
2012-11-13,51,42,33,41,29,26,100,70,39,30.40,30.31,30.24,10,10,10,28,15,36,0.02,2,Rain,348
2012-11-14,49,38,26,31,28,24,92,69,46,30.47,30.38,30.31,10,10,10,10,2,14,0.00,0,,197
2012-11-15,59,46,33,39,33,28,96,70,43,30.31,30.27,30.18,10,9,2,14,3,18,0.12,2,Rain,312
2012-11-16,59,43,27,35,28,24,100,64,28,30.38,30.29,30.24,10,5,0,12,2,16,0.00,2,Fog,339
2012-11-17,59,43,26,32,24,9,92,53,13,30.48,30.43,30.38,10,10,10,14,1,17,0.00,0,,17
2012-11-18,56,42,28,41,33,22,92,74,55,30.50,30.43,30.37,10,10,9,12,2,14,0.00,3,,325
2012-11-19,60,46,32,47,39,30,100,80,60,30.36,30.30,30.21,10,8,0,7,2,10,0.00,5,Fog,318
2012-11-20,62,49,36,42,36,29,100,65,29,30.22,30.16,30.05,10,5,0,14,4,20,0.00,4,Fog,327
2012-11-21,64,48,32,38,34,31,92,64,36,30.20,30.15,30.10,10,10,10,18,6,23,0.00,1,,336
2012-11-22,67,49,30,38,32,28,92,59,26,30.28,30.21,30.15,10,10,6,7,2,13,0.00,0,,190
2012-11-23,63,46,28,45,34,27,92,64,36,30.18,30.08,29.97,10,10,8,28,8,35,T,1,,332
2012-11-24,42,35,27,29,22,17,75,56,36,30.14,30.06,29.97,10,10,10,23,12,30,0.00,0,,345
2012-11-25,56,39,21,24,18,9,92,54,16,30.18,30.11,30.02,10,10,10,9,1,9,0.00,0,,335
2012-11-26,63,44,25,30,24,19,81,52,23,30.22,30.15,30.10,10,10,10,13,4,17,T,2,,128
2012-11-27,52,47,42,45,38,27,89,64,38,30.22,30.14,30.09,10,10,10,21,8,26,T,7,,345
2012-11-28,52,41,30,36,27,13,85,54,23,30.39,30.31,30.21,10,10,10,17,8,22,0.00,2,,343
2012-11-29,57,40,23,36,29,21,89,66,43,30.46,30.39,30.32,10,10,8,10,2,14,0.00,0,,152
2012-11-30,62,44,25,39,29,24,100,68,36,30.40,30.35,30.25,10,4,0,10,2,15,0.00,2,Fog,156